createdAt,value
2017-09-10T00:01:27.304Z,1.40
2017-09-10T00:06:56.334Z,1.50
2017-09-10T00:12:29.980Z,1.50
2017-09-10T00:17:58.167Z,1.20
2017-09-10T00:23:26.314Z,1.37
2017-09-10T00:28:54.496Z,1.30
2017-09-10T00:34:22.643Z,1.50
2017-09-10T00:39:50.965Z,1.10
2017-09-10T00:45:19.124Z,1.23
2017-09-10T00:50:47.255Z,1.97
2017-09-10T00:56:15.490Z,1.63
2017-09-10T01:01:43.627Z,1.57
2017-09-10T01:07:12.534Z,1.20
2017-09-10T01:12:40.683Z,1.30
2017-09-10T01:18:08.824Z,1.40
2017-09-10T01:23:36.976Z,1.27
2017-09-10T01:29:05.886Z,1.50
2017-09-10T01:34:34.034Z,1.17
2017-09-10T01:40:02.202Z,1.20
2017-09-10T01:45:30.379Z,1.27
2017-09-10T01:50:58.565Z,1.67
2017-09-10T01:56:27.190Z,1.47
2017-09-10T02:02:03.776Z,1.50
2017-09-10T02:07:33.011Z,1.50
2017-09-10T02:13:01.158Z,1.00
2017-09-10T02:18:29.313Z,1.20
2017-09-10T02:23:57.496Z,1.17
2017-09-10T02:29:25.650Z,1.10
2017-09-10T02:34:53.800Z,1.30
2017-09-10T02:40:21.941Z,1.07
2017-09-10T02:45:50.855Z,1.40
2017-09-10T02:51:18.998Z,1.30
2017-09-10T02:56:47.150Z,1.40
2017-09-10T03:02:15.278Z,1.27
2017-09-10T03:07:44.201Z,1.30
2017-09-10T03:13:12.348Z,1.40
2017-09-10T03:18:41.276Z,1.30
2017-09-10T03:24:10.191Z,1.00
2017-09-10T03:29:38.402Z,1.03
2017-09-10T03:35:06.541Z,1.10
2017-09-10T03:40:34.698Z,1.23
2017-09-10T03:46:02.870Z,1.10
2017-09-10T03:51:31.037Z,1.33
2017-09-10T03:56:59.184Z,1.00
2017-09-10T04:02:27.344Z,1.23
2017-09-10T04:07:59.762Z,1.50
2017-09-10T04:13:27.928Z,1.10
2017-09-10T04:18:56.072Z,1.10
2017-09-10T04:24:24.199Z,1.33
2017-09-10T04:29:53.103Z,1.37
2017-09-10T04:35:21.253Z,1.33
2017-09-10T04:40:49.395Z,0.90
2017-09-10T04:46:17.525Z,1.10
2017-09-10T04:51:45.671Z,1.20
2017-09-10T04:57:13.818Z,1.30
2017-09-10T05:02:41.954Z,1.10
2017-09-10T05:08:10.086Z,1.00
2017-09-10T05:13:38.233Z,1.07
2017-09-10T05:19:07.265Z,1.00
2017-09-10T05:24:35.438Z,0.83
2017-09-10T05:30:03.603Z,1.00
2017-09-10T05:35:31.770Z,1.00
2017-09-10T05:41:00.734Z,1.50
2017-09-10T05:46:29.935Z,0.90
2017-09-10T05:51:58.093Z,1.07
2017-09-10T05:57:26.268Z,1.20
2017-09-10T06:02:55.172Z,1.13
2017-09-10T06:08:23.324Z,0.90
2017-09-10T06:13:51.486Z,0.80
2017-09-10T06:19:19.653Z,0.93
2017-09-10T06:24:47.832Z,1.03
2017-09-10T06:30:15.977Z,1.00
2017-09-10T06:35:44.136Z,1.03
2017-09-10T06:41:12.271Z,1.00
2017-09-10T06:46:40.472Z,1.70
2017-09-10T06:52:08.627Z,1.40
2017-09-10T06:57:36.785Z,1.57
2017-09-10T07:03:04.933Z,1.50
2017-09-10T07:08:33.102Z,1.47
2017-09-10T07:14:01.368Z,1.00
2017-09-10T07:19:29.529Z,1.40
2017-09-10T07:24:57.697Z,1.63
2017-09-10T07:30:25.848Z,1.30
2017-09-10T07:35:53.987Z,1.80
2017-09-10T07:41:22.152Z,1.10
2017-09-10T07:46:50.916Z,1.50
2017-09-10T07:52:19.067Z,1.40
2017-09-10T07:57:47.236Z,1.30
2017-09-10T08:03:15.386Z,1.10
2017-09-10T08:08:43.701Z,1.33
2017-09-10T08:14:13.560Z,1.60
2017-09-10T08:19:41.706Z,1.30
2017-09-10T08:25:11.826Z,1.10
2017-09-10T08:30:39.962Z,1.30
2017-09-10T08:36:08.199Z,1.00
2017-09-10T08:41:36.353Z,1.10
2017-09-10T08:47:05.415Z,1.47
2017-09-10T08:52:33.609Z,0.93
2017-09-10T08:58:02.674Z,1.00
2017-09-10T09:03:30.874Z,1.17
2017-09-10T09:09:01.713Z,0.90
2017-09-10T09:14:33.797Z,1.10
2017-09-10T09:20:02.195Z,1.17
2017-09-10T09:25:30.492Z,1.20
2017-09-10T09:31:00.052Z,1.00
2017-09-10T09:36:28.640Z,0.80
2017-09-10T09:41:57.487Z,1.30
2017-09-10T09:47:25.743Z,1.00
2017-09-10T09:52:54.008Z,1.00
2017-09-10T09:58:22.298Z,0.90
2017-09-10T10:03:51.278Z,1.10
2017-09-10T10:09:20.226Z,1.20
2017-09-10T10:14:48.412Z,1.20
2017-09-10T10:20:17.662Z,1.27
2017-09-10T10:25:45.810Z,1.40
2017-09-10T10:31:13.969Z,1.17
2017-09-10T10:36:42.152Z,1.47
2017-09-10T10:42:11.291Z,1.30
2017-09-10T10:47:40.193Z,1.33
2017-09-10T10:53:08.361Z,1.27
2017-09-10T10:58:36.513Z,1.30
2017-09-10T11:04:06.567Z,0.90
2017-09-10T11:09:35.487Z,1.30
2017-09-10T11:15:03.630Z,1.30
2017-09-10T11:20:31.793Z,1.30
2017-09-10T11:25:59.961Z,0.90
2017-09-10T11:31:29.068Z,1.00
2017-09-10T11:36:58.486Z,1.10
2017-09-10T11:42:29.022Z,1.10
2017-09-10T11:47:59.286Z,1.20
2017-09-10T11:53:29.428Z,1.20
2017-09-10T11:58:57.605Z,1.20
2017-09-10T12:04:27.853Z,1.80
2017-09-10T12:09:56.015Z,1.13
2017-09-10T12:15:30.340Z,1.37
2017-09-10T12:20:59.454Z,1.20
2017-09-10T12:26:28.716Z,1.00
2017-09-10T12:31:56.984Z,1.00
2017-09-10T12:37:25.306Z,1.23
2017-09-10T12:42:54.241Z,1.20
2017-09-10T12:48:24.344Z,1.40
2017-09-10T12:53:52.505Z,1.20
2017-09-10T12:59:20.654Z,1.10
2017-09-10T13:04:48.856Z,1.07
2017-09-10T13:10:17.897Z,0.93
2017-09-10T13:15:46.070Z,1.00
2017-09-10T13:21:14.230Z,1.10
2017-09-10T13:26:42.405Z,1.20
2017-09-10T13:32:10.592Z,2.03
2017-09-10T13:37:39.714Z,1.10
2017-09-10T13:43:07.917Z,1.10
2017-09-10T13:48:36.932Z,1.10
2017-09-10T13:54:05.398Z,1.10
2017-09-10T13:59:33.571Z,1.20
2017-09-10T14:05:01.764Z,1.20
2017-09-10T14:10:30.705Z,1.07
2017-09-10T14:16:02.207Z,1.00
2017-09-10T14:21:30.375Z,1.10
2017-09-10T14:26:59.556Z,0.90
2017-09-10T14:32:28.490Z,0.90
2017-09-10T14:37:56.738Z,1.00
2017-09-10T14:43:24.894Z,1.00
2017-09-10T14:48:53.111Z,0.70
2017-09-10T14:54:21.259Z,0.83
2017-09-10T14:59:49.785Z,0.90
2017-09-10T15:05:24.050Z,1.40
2017-09-10T15:10:52.216Z,1.20
2017-09-10T15:16:20.393Z,1.20
2017-09-10T15:21:48.548Z,0.90
2017-09-10T15:27:16.902Z,1.20
2017-09-10T15:32:45.965Z,1.00
2017-09-10T15:38:14.256Z,1.30
2017-09-10T15:43:42.583Z,1.27
2017-09-10T15:49:10.835Z,1.20
2017-09-10T15:54:39.141Z,1.00
2017-09-10T16:00:07.693Z,1.00
2017-09-10T16:05:37.011Z,0.83
2017-09-10T16:11:06.355Z,1.10
2017-09-10T16:16:35.591Z,1.40
2017-09-10T16:22:03.897Z,1.00
2017-09-10T16:27:32.189Z,0.90
2017-09-10T16:33:00.573Z,0.87
2017-09-10T16:38:29.260Z,1.30
2017-09-10T16:43:59.646Z,1.30
2017-09-10T16:49:29.553Z,0.90
2017-09-10T16:54:59.673Z,1.20
2017-09-10T17:00:28.033Z,1.00
2017-09-10T17:05:56.531Z,1.00
2017-09-10T17:11:26.402Z,1.10
2017-09-10T17:16:54.626Z,1.23
2017-09-10T17:22:22.941Z,1.60
2017-09-10T17:27:51.285Z,1.20
2017-09-10T17:33:20.572Z,1.70
2017-09-10T17:38:48.942Z,2.97
2017-09-10T17:44:17.312Z,3.20
2017-09-10T17:49:45.616Z,3.97
2017-09-10T17:55:13.841Z,3.73
2017-09-10T18:00:42.166Z,3.00
2017-09-10T18:06:10.625Z,2.33
2017-09-10T18:11:38.943Z,2.10
2017-09-10T18:17:07.227Z,1.73
2017-09-10T18:22:35.610Z,2.33
2017-09-10T18:28:04.087Z,3.00
2017-09-10T18:33:33.165Z,3.30
2017-09-10T18:39:01.565Z,3.60
2017-09-10T18:44:29.949Z,1.73
2017-09-10T18:49:58.401Z,2.37
2017-09-10T18:55:28.342Z,1.60
2017-09-10T19:00:56.514Z,2.00
2017-09-10T19:06:29.846Z,2.33
2017-09-10T19:11:58.039Z,2.23
2017-09-10T19:17:26.205Z,2.37
2017-09-10T19:22:54.364Z,1.67
2017-09-10T19:28:22.502Z,1.73
2017-09-10T19:33:52.479Z,1.80
2017-09-10T19:39:20.636Z,2.13
2017-09-10T19:44:49.925Z,2.10
2017-09-10T19:50:18.080Z,2.37
2017-09-10T19:55:46.234Z,2.73
2017-09-10T20:01:14.398Z,2.67
2017-09-10T20:06:42.548Z,3.37
2017-09-10T20:12:10.729Z,2.87
2017-09-10T20:17:38.881Z,2.60
2017-09-10T20:23:07.043Z,2.80
2017-09-10T20:28:35.965Z,3.23
2017-09-10T20:34:06.946Z,2.47
2017-09-10T20:39:35.644Z,3.63
2017-09-10T20:45:03.828Z,2.83
2017-09-10T20:50:32.025Z,3.03
2017-09-10T20:56:00.217Z,3.07
2017-09-10T21:01:28.449Z,3.20
2017-09-10T21:06:56.622Z,3.53
2017-09-10T21:12:24.773Z,3.00
2017-09-10T21:17:53.690Z,3.37
2017-09-10T21:23:21.996Z,3.50
2017-09-10T21:28:50.169Z,3.50
2017-09-10T21:34:19.113Z,3.97
2017-09-10T21:39:47.583Z,3.27
2017-09-10T21:45:16.672Z,3.30
2017-09-10T21:50:45.029Z,3.53
2017-09-10T21:56:13.180Z,4.50
2017-09-10T22:01:41.394Z,4.40
2017-09-10T22:07:09.558Z,4.37
2017-09-10T22:12:37.735Z,4.50
2017-09-10T22:18:05.909Z,3.80
2017-09-10T22:23:34.056Z,3.97
2017-09-10T22:29:02.234Z,3.87
2017-09-10T22:34:30.440Z,4.20
2017-09-10T22:39:58.615Z,4.73
2017-09-10T22:45:26.809Z,4.43
2017-09-10T22:50:55.734Z,5.97
2017-09-10T22:56:23.886Z,5.10
2017-09-10T23:01:52.055Z,5.10
2017-09-10T23:07:20.204Z,4.77
2017-09-10T23:12:48.348Z,5.07
2017-09-10T23:18:17.288Z,5.00
2017-09-10T23:23:45.422Z,5.13
2017-09-10T23:29:13.688Z,5.40
2017-09-10T23:34:41.933Z,5.50
2017-09-10T23:40:10.080Z,5.47
2017-09-10T23:45:38.273Z,5.37
2017-09-10T23:51:06.421Z,5.17
2017-09-10T23:56:34.575Z,4.50
